Terminal Aerodrome Forecast
Issued by NWS

Home | Current Version | Previous Version | Text Only | Print | Product List | Glossary On
Versions: 1 2 3 4 5 6 7 8 9 10 11 12 13 14 15 16 17 18 19 20 21 22 23 24
000
FTAK31 PAJN 021700
TAFAJN
TAF
PAJN 021738Z 0218/0318 23005KT P6SM BCFG FEW006 SCT035 BKN050
     FM030300 08006KT P6SM VCSH BKN050
     FM030600 08004KT P6SM -SHRA BKN040 OVC050
     FM031000 08006KT 6SM -SHRA BR BKN025 OVC050
     FM031200 07004KT 2SM -SHRA BR BKN015 OVC025=

USA.gov is the U.S. government's official web portal to all federal, state and local government web resources and services.